Atyrau, Kazakhstan
Current Conditions -  °F | °C
As of 4:00 PM on Thursday 23 Oct 2014 (Local Time) from UATG Reporting Station
Broken Clouds Broken Clouds  
Wind Chill:   Ceiling: 1600
Heat Index:   Visibility: 6mi
Dew Point:   Wind: 9mph
Humidity: 81%   Direction: 30°NNE
Pressure: 30.03"   Gusts: NA
Location:  47.12°N, 51.88°E
Report Text: UATG 231200Z 03004MPS 9999 BKN016CB 06/03 Q1017 R32/19//67NOSIG RMK QFE765/1020
Loading
Personal Weather Stations






























Interactive Weather Map
Tropical Storm Tracking
New forecast layout! Learn more

10-Day Weather Forecast

Advertisements
Track Severe Weather on mobile